createdAt,value
2019-03-05T00:04:18.425Z,98677.94
2019-03-05T00:09:21.683Z,98663.44
2019-03-05T00:14:23.272Z,98671.09
2019-03-05T00:19:24.853Z,98681.52
2019-03-05T00:25:01.216Z,98672.72
2019-03-05T00:30:39.310Z,98674.53
2019-03-05T00:42:11.227Z,98661.84
2019-03-05T00:47:46.013Z,98672.42
2019-03-05T00:53:18.222Z,98649.77
2019-03-05T00:58:29.883Z,98643.58
2019-03-05T01:04:18.660Z,98643.26
2019-03-05T01:09:24.442Z,98646.52
2019-03-05T01:14:25.984Z,98663.15
2019-03-05T01:19:27.593Z,98674.89
2019-03-05T01:24:29.227Z,98676.52
2019-03-05T01:29:30.901Z,98670.14
2019-03-05T01:34:37.616Z,98672.42
2019-03-05T01:39:44.309Z,98665.87
2019-03-05T01:44:45.870Z,98667.17
2019-03-05T01:49:47.521Z,98665.68
2019-03-05T01:54:49.126Z,98670.72
2019-03-05T01:59:50.705Z,98677.09
2019-03-05T02:04:52.281Z,98670.71
2019-03-05T02:09:53.867Z,98674.95
2019-03-05T02:14:55.632Z,98669.59
2019-03-05T02:19:57.228Z,98679.05
2019-03-05T02:25:20.646Z,98680.67
2019-03-05T02:30:36.370Z,98684.73
2019-03-05T02:35:51.155Z,98692.71
2019-03-05T02:41:12.054Z,98701.02
2019-03-05T02:46:49.353Z,98702.17
2019-03-05T02:52:00.638Z,98705.10
2019-03-05T02:57:08.342Z,98697.23
2019-03-05T03:02:32.661Z,98700.17
2019-03-05T03:07:34.218Z,98699.05
2019-03-05T03:12:35.800Z,98699.70
2019-03-05T03:17:37.457Z,98719.28
2019-03-05T03:22:39.027Z,98725.99
2019-03-05T03:27:40.584Z,98731.55
2019-03-05T03:32:42.181Z,98742.13
2019-03-05T03:37:43.820Z,98733.17
2019-03-05T03:42:45.514Z,98747.71
2019-03-05T03:47:47.217Z,98714.10
2019-03-05T03:52:48.788Z,98729.30
2019-03-05T03:57:50.471Z,98730.27
2019-03-05T04:02:52.960Z,98745.43
2019-03-05T04:07:54.620Z,98739.41
2019-03-05T04:12:56.291Z,98747.56
2019-03-05T04:17:57.956Z,98764.05
2019-03-05T04:22:59.635Z,98774.97
2019-03-05T04:28:01.304Z,98788.84
2019-03-05T04:33:02.965Z,98807.92
2019-03-05T04:38:04.546Z,98780.52
2019-03-05T04:43:06.138Z,98802.55
2019-03-05T04:48:08.006Z,98809.73
2019-03-05T04:53:09.616Z,98784.61
2019-03-05T04:58:11.218Z,98808.58
2019-03-05T05:03:12.813Z,98799.91
2019-03-05T05:08:14.362Z,98803.36
2019-03-05T05:13:16.051Z,98810.03
2019-03-05T05:18:17.620Z,98801.23
2019-03-05T05:23:19.177Z,98803.66
2019-03-05T05:28:20.769Z,98801.38
2019-03-05T05:33:22.475Z,98824.08
2019-03-05T05:38:24.047Z,98822.44
2019-03-05T05:43:27.951Z,98813.95
2019-03-05T05:48:29.616Z,98817.36
2019-03-05T05:53:31.199Z,98845.42
2019-03-05T05:58:32.765Z,98848.55
2019-03-05T06:03:34.347Z,98845.42
2019-03-05T06:08:35.937Z,98858.01
2019-03-05T06:13:37.530Z,98858.02
2019-03-05T06:18:39.100Z,98869.44
2019-03-05T06:23:40.655Z,98851.30
2019-03-05T06:28:42.289Z,98861.27
2019-03-05T06:33:43.893Z,98886.24
2019-03-05T06:38:45.455Z,98879.22
2019-03-05T06:43:47.055Z,98884.93
2019-03-05T06:48:48.644Z,98889.80
2019-03-05T06:53:50.260Z,98903.35
2019-03-05T06:58:51.825Z,98900.57
2019-03-05T07:03:53.427Z,98906.75
2019-03-05T07:08:59.789Z,98892.89
2019-03-05T07:14:02.985Z,98908.43
2019-03-05T07:19:15.504Z,98918.69
2019-03-05T07:24:43.190Z,98924.74
2019-03-05T07:29:44.865Z,98933.39
2019-03-05T07:34:47.485Z,98928.31
2019-03-05T07:39:49.207Z,98934.54
2019-03-05T07:44:50.809Z,98943.02
2019-03-05T07:49:52.474Z,98926.37
2019-03-05T07:54:54.067Z,98957.69
2019-03-05T07:59:55.670Z,98962.61
2019-03-05T08:04:57.402Z,98972.25
2019-03-05T08:10:06.084Z,98968.33
2019-03-05T08:15:21.239Z,98988.09
2019-03-05T08:20:22.930Z,98983.31
2019-03-05T08:25:24.524Z,98984.92
2019-03-05T08:30:26.072Z,98997.05
2019-03-05T08:35:27.616Z,98995.91
2019-03-05T08:40:29.176Z,99005.55
2019-03-05T08:45:30.974Z,99003.59
2019-03-05T08:50:32.693Z,99003.91
2019-03-05T08:55:34.590Z,99014.21
2019-03-05T09:00:36.293Z,99013.87
2019-03-05T09:05:37.946Z,99013.22
2019-03-05T09:10:39.599Z,99013.88
2019-03-05T09:15:41.166Z,99019.59
2019-03-05T09:20:42.755Z,99037.22
2019-03-05T09:25:44.450Z,99002.55
2019-03-05T09:30:46.042Z,99032.26
2019-03-05T09:35:47.715Z,99024.13
2019-03-05T09:40:49.478Z,99005.02
2019-03-05T09:45:51.119Z,99041.45
2019-03-05T09:50:52.671Z,99018.09
2019-03-05T09:55:55.026Z,99016.45
2019-03-05T10:00:56.884Z,99028.40
2019-03-05T10:05:58.460Z,99046.32
2019-03-05T10:11:00.127Z,99015.81
2019-03-05T10:16:01.816Z,99037.49
2019-03-05T10:21:03.641Z,99034.61
2019-03-05T10:26:05.305Z,99029.49
2019-03-05T10:31:06.996Z,99019.89
2019-03-05T10:36:08.658Z,99026.75
2019-03-05T10:41:10.334Z,99016.34
2019-03-05T10:46:12.033Z,99053.77
2019-03-05T10:51:13.684Z,99017.80
2019-03-05T10:56:15.437Z,99020.47
2019-03-05T11:01:17.107Z,99014.05
2019-03-05T11:06:18.825Z,99036.45
2019-03-05T11:11:20.637Z,99017.47
2019-03-05T11:16:30.364Z,99031.53
2019-03-05T11:21:25.996Z,99053.00
2019-03-05T11:26:27.666Z,99057.49
2019-03-05T11:31:29.248Z,99059.75
2019-03-05T11:36:30.996Z,99045.33
2019-03-05T11:41:32.629Z,99056.59
2019-03-05T11:46:34.417Z,99051.25
2019-03-05T11:51:36.136Z,99056.78
2019-03-05T11:56:37.694Z,99093.05
2019-03-05T12:01:42.858Z,99064.44
2019-03-05T12:06:44.497Z,99060.52
2019-03-05T12:11:46.072Z,99081.16
2019-03-05T12:16:47.849Z,99086.69
2019-03-05T12:21:49.756Z,99058.92
2019-03-05T12:26:51.691Z,99065.42
2019-03-05T12:31:53.610Z,99083.89
2019-03-05T12:36:55.486Z,99062.76
2019-03-05T12:41:57.298Z,99060.14
2019-03-05T12:47:02.031Z,99065.28
2019-03-05T12:52:03.727Z,99065.56
2019-03-05T12:57:05.416Z,99105.48
2019-03-05T13:02:07.187Z,99069.20
2019-03-05T13:07:08.757Z,99091.64
2019-03-05T13:12:10.442Z,99106.33
2019-03-05T13:17:12.119Z,99081.33
2019-03-05T13:22:13.689Z,99124.64
2019-03-05T13:27:18.869Z,99129.08
2019-03-05T13:32:20.824Z,99131.31
2019-03-05T13:37:24.884Z,99122.27
2019-03-05T13:42:29.042Z,99123.08
2019-03-05T13:47:29.658Z,99093.34
2019-03-05T13:53:14.536Z,99108.72
2019-03-05T13:58:51.935Z,99113.56
2019-03-05T14:03:58.131Z,99108.75
2019-03-05T14:09:15.535Z,99102.30
2019-03-05T14:14:21.667Z,99141.83
2019-03-05T14:19:23.333Z,99098.69
2019-03-05T14:24:25.137Z,99115.69
2019-03-05T14:29:29.266Z,99118.10
2019-03-05T14:34:30.435Z,99116.74
2019-03-05T14:39:33.727Z,99140.52
2019-03-05T14:44:40.124Z,99156.59
2019-03-05T14:49:39.990Z,99138.41
2019-03-05T14:54:41.655Z,99132.81
2019-03-05T14:59:43.332Z,99130.61
2019-03-05T15:04:44.994Z,99133.86
2019-03-05T15:09:46.740Z,99127.64
2019-03-05T15:14:48.280Z,99159.14
2019-03-05T15:19:50.017Z,99135.67
2019-03-05T15:24:51.747Z,99156.44
2019-03-05T15:29:53.295Z,99186.72
2019-03-05T15:34:55.235Z,99164.26
2019-03-05T15:39:59.260Z,99166.81
2019-03-05T15:45:02.707Z,99180.07
2019-03-05T15:50:10.411Z,99185.00
2019-03-05T15:55:12.501Z,99199.86
2019-03-05T16:00:16.927Z,99198.55
2019-03-05T16:05:20.762Z,99207.22
2019-03-05T16:10:22.374Z,99208.22
2019-03-05T16:15:24.035Z,99221.88
2019-03-05T16:20:26.094Z,99232.91
2019-03-05T16:25:28.892Z,99226.98
2019-03-05T16:30:49.157Z,99236.95
2019-03-05T16:36:16.686Z,99249.66
2019-03-05T16:41:29.724Z,99250.59
2019-03-05T16:46:51.242Z,99259.40
2019-03-05T16:52:10.415Z,99268.02
2019-03-05T16:57:31.785Z,99268.95
2019-03-05T17:02:55.612Z,99291.64
2019-03-05T17:08:16.783Z,99299.64
2019-03-05T17:13:18.835Z,99310.06
2019-03-05T17:18:20.589Z,99318.95
2019-03-05T17:23:22.297Z,99328.26
2019-03-05T17:28:23.923Z,99343.52
2019-03-05T17:33:25.664Z,99352.38
2019-03-05T17:38:27.534Z,99357.00
2019-03-05T17:43:29.770Z,99369.20
2019-03-05T17:48:31.551Z,99387.94
2019-03-05T17:53:33.155Z,99395.04
2019-03-05T17:58:34.748Z,99407.23
2019-03-05T18:03:36.502Z,99419.61
2019-03-05T18:08:39.515Z,99423.97
2019-03-05T18:13:41.288Z,99432.77
2019-03-05T18:18:43.193Z,99431.07
2019-03-05T18:23:45.099Z,99443.08
2019-03-05T18:28:47.283Z,99459.80
2019-03-05T18:33:49.419Z,99459.06
2019-03-05T18:38:51.616Z,99472.22
2019-03-05T18:43:53.330Z,99483.23
2019-03-05T18:48:54.944Z,99488.57
2019-03-05T18:53:56.764Z,99494.75
2019-03-05T18:58:58.564Z,99504.51
2019-03-05T19:04:00.313Z,99513.27
2019-03-05T19:09:03.454Z,99525.72
2019-03-05T19:14:05.266Z,99532.47
2019-03-05T19:19:07.004Z,99547.15
2019-03-05T19:24:08.691Z,99550.44
2019-03-05T19:29:10.690Z,99557.14
2019-03-05T19:34:12.456Z,99565.53
2019-03-05T19:39:14.488Z,99568.33
2019-03-05T19:44:16.544Z,99574.69
2019-03-05T19:49:18.309Z,99586.92
2019-03-05T19:54:20.041Z,99590.00
2019-03-05T19:59:21.901Z,99593.11
2019-03-05T20:04:23.693Z,99610.15
2019-03-05T20:09:25.443Z,99612.87
2019-03-05T20:14:27.223Z,99614.45
2019-03-05T20:19:28.833Z,99620.94
2019-03-05T20:24:30.503Z,99625.47
2019-03-05T20:29:32.111Z,99621.38
2019-03-05T20:34:34.034Z,99627.59
2019-03-05T20:39:35.927Z,99632.84
2019-03-05T20:44:37.680Z,99633.23
2019-03-05T20:49:39.756Z,99638.45
2019-03-05T20:54:44.403Z,99649.80
2019-03-05T20:59:46.086Z,99653.48
2019-03-05T21:04:47.801Z,99668.23
2019-03-05T21:09:49.412Z,99674.22
2019-03-05T21:14:50.975Z,99679.16
2019-03-05T21:19:52.900Z,99681.23
2019-03-05T21:24:54.473Z,99686.98
2019-03-05T21:29:56.132Z,99691.53
2019-03-05T21:34:57.723Z,99697.27
2019-03-05T21:39:59.289Z,99709.15
2019-03-05T21:45:00.858Z,99718.53
2019-03-05T21:50:03.546Z,99721.95
2019-03-05T21:55:06.056Z,99728.61
2019-03-05T22:00:13.875Z,99738.68
2019-03-05T22:05:15.674Z,99734.77
2019-03-05T22:10:18.023Z,99747.30
2019-03-05T22:15:19.722Z,99760.48
2019-03-05T22:20:21.884Z,99757.52
2019-03-05T22:25:23.707Z,99759.09
2019-03-05T22:30:26.150Z,99767.16
2019-03-05T22:35:27.864Z,99774.59
2019-03-05T22:40:29.435Z,99770.89
2019-03-05T22:45:31.262Z,99785.81
2019-03-05T22:50:32.835Z,99789.89
2019-03-05T22:55:34.425Z,99797.23
2019-03-05T23:00:57.705Z,99802.45
2019-03-05T23:06:00.278Z,99799.84
2019-03-05T23:11:01.843Z,99811.26
2019-03-05T23:16:03.812Z,99806.05
2019-03-05T23:21:05.479Z,99813.41
2019-03-05T23:26:07.150Z,99817.22
2019-03-05T23:31:08.927Z,99822.36
2019-03-05T23:36:10.620Z,99823.31
2019-03-05T23:41:13.114Z,99816.25
2019-03-05T23:46:14.809Z,99816.05
2019-03-05T23:51:16.674Z,99829.31
2019-03-05T23:56:18.449Z,99833.81
